sensor_id;sensor_type;location;lat;lon;timestamp;pressure;altitude;pressure_sealevel;temperature;humidity
32197;BME280;18697;42.770;23.400;2023-02-10T00:01:52;97491.25;;;-1.96;55.07
32197;BME280;18697;42.770;23.400;2023-02-10T00:04:18;97491.94;;;-1.99;54.64
32197;BME280;18697;42.770;23.400;2023-02-10T00:06:43;97496.72;;;-1.84;54.46
32197;BME280;18697;42.770;23.400;2023-02-10T00:09:11;97485.16;;;-1.81;54.11
32197;BME280;18697;42.770;23.400;2023-02-10T00:11:38;97491.31;;;-1.72;53.48
32197;BME280;18697;42.770;23.400;2023-02-10T00:14:21;97490.63;;;-1.69;52.98
32197;BME280;18697;42.770;23.400;2023-02-10T00:16:51;97494.25;;;-1.77;53.33
32197;BME280;18697;42.770;23.400;2023-02-10T00:19:17;97493.66;;;-1.94;54.09
32197;BME280;18697;42.770;23.400;2023-02-10T00:21:43;97491.47;;;-2.01;54.23
32197;BME280;18697;42.770;23.400;2023-02-10T00:24:08;97478.75;;;-2.09;54.13
32197;BME280;18697;42.770;23.400;2023-02-10T00:26:34;97489.50;;;-2.25;54.66
32197;BME280;18697;42.770;23.400;2023-02-10T00:28:59;97477.91;;;-2.22;54.87
32197;BME280;18697;42.770;23.400;2023-02-10T00:31:24;97478.72;;;-2.21;54.92
32197;BME280;18697;42.770;23.400;2023-02-10T00:33:50;97476.47;;;-2.07;54.66
32197;BME280;18697;42.770;23.400;2023-02-10T00:36:15;97481.00;;;-2.11;54.32
32197;BME280;18697;42.770;23.400;2023-02-10T00:38:41;97473.09;;;-2.04;54.41
32197;BME280;18697;42.770;23.400;2023-02-10T00:41:25;97473.78;;;-1.95;54.14
32197;BME280;18697;42.770;23.400;2023-02-10T00:43:50;97466.66;;;-1.87;53.93
32197;BME280;18697;42.770;23.400;2023-02-10T00:46:18;97469.38;;;-1.87;53.63
32197;BME280;18697;42.770;23.400;2023-02-10T00:48:44;97461.84;;;-2.03;53.53
32197;BME280;18697;42.770;23.400;2023-02-10T00:51:11;97463.75;;;-2.27;54.47
32197;BME280;18697;42.770;23.400;2023-02-10T00:53:36;97456.47;;;-2.36;55.61
32197;BME280;18697;42.770;23.400;2023-02-10T00:56:02;97460.69;;;-2.26;55.75
32197;BME280;18697;42.770;23.400;2023-02-10T00:58:28;97464.53;;;-2.27;55.40
32197;BME280;18697;42.770;23.400;2023-02-10T01:00:54;97455.72;;;-2.24;55.75
32197;BME280;18697;42.770;23.400;2023-02-10T01:03:20;97461.94;;;-2.11;55.20
32197;BME280;18697;42.770;23.400;2023-02-10T01:05:46;97451.59;;;-2.18;55.17
32197;BME280;18697;42.770;23.400;2023-02-10T01:08:12;97449.00;;;-2.14;54.90
32197;BME280;18697;42.770;23.400;2023-02-10T01:10:37;97449.25;;;-2.07;55.07
32197;BME280;18697;42.770;23.400;2023-02-10T01:13:04;97451.28;;;-2.04;54.85
32197;BME280;18697;42.770;23.400;2023-02-10T01:15:31;97448.34;;;-2.11;54.47
32197;BME280;18697;42.770;23.400;2023-02-10T01:17:57;97445.69;;;-2.20;55.27
32197;BME280;18697;42.770;23.400;2023-02-10T01:20:23;97439.78;;;-2.34;55.12
32197;BME280;18697;42.770;23.400;2023-02-10T01:22:48;97444.78;;;-2.36;55.75
32197;BME280;18697;42.770;23.400;2023-02-10T01:25:14;97450.78;;;-2.43;56.04
32197;BME280;18697;42.770;23.400;2023-02-10T01:27:40;97451.66;;;-2.51;55.44
32197;BME280;18697;42.770;23.400;2023-02-10T01:30:05;97452.22;;;-2.45;54.50
32197;BME280;18697;42.770;23.400;2023-02-10T01:32:31;97431.47;;;-2.50;54.48
32197;BME280;18697;42.770;23.400;2023-02-10T01:34:56;97436.91;;;-2.50;54.82
32197;BME280;18697;42.770;23.400;2023-02-10T01:37:22;97434.94;;;-2.61;54.86
32197;BME280;18697;42.770;23.400;2023-02-10T01:39:47;97431.81;;;-2.51;55.40
32197;BME280;18697;42.770;23.400;2023-02-10T01:42:14;97437.66;;;-2.61;55.05
32197;BME280;18697;42.770;23.400;2023-02-10T01:47:06;97428.91;;;-2.67;55.65
32197;BME280;18697;42.770;23.400;2023-02-10T01:49:36;97433.47;;;-2.59;55.46
32197;BME280;18697;42.770;23.400;2023-02-10T01:52:13;97413.50;;;-2.63;55.81
32197;BME280;18697;42.770;23.400;2023-02-10T01:54:49;97429.63;;;-2.58;54.80
32197;BME280;18697;42.770;23.400;2023-02-10T01:57:17;97420.41;;;-2.66;55.36
32197;BME280;18697;42.770;23.400;2023-02-10T01:59:43;97419.06;;;-2.59;55.52
32197;BME280;18697;42.770;23.400;2023-02-10T02:02:11;97416.56;;;-2.65;54.88
32197;BME280;18697;42.770;23.400;2023-02-10T02:04:42;97408.75;;;-2.66;55.13
32197;BME280;18697;42.770;23.400;2023-02-10T02:07:11;97418.03;;;-2.67;54.63
32197;BME280;18697;42.770;23.400;2023-02-10T02:09:37;97414.19;;;-2.66;55.05
32197;BME280;18697;42.770;23.400;2023-02-10T02:12:05;97401.38;;;-2.66;54.56
32197;BME280;18697;42.770;23.400;2023-02-10T02:15:12;97410.59;;;-2.58;54.58
32197;BME280;18697;42.770;23.400;2023-02-10T02:17:46;97405.50;;;-2.47;54.34
32197;BME280;18697;42.770;23.400;2023-02-10T02:26:21;97405.59;;;-2.56;54.35
32197;BME280;18697;42.770;23.400;2023-02-10T02:34:49;97389.06;;;-2.84;54.19
32197;BME280;18697;42.770;23.400;2023-02-10T02:37:21;97385.28;;;-2.91;54.83
32197;BME280;18697;42.770;23.400;2023-02-10T02:39:52;97390.19;;;-2.85;54.73
32197;BME280;18697;42.770;23.400;2023-02-10T02:42:23;97391.44;;;-2.82;54.42
32197;BME280;18697;42.770;23.400;2023-02-10T02:45:04;97388.06;;;-2.79;54.47
32197;BME280;18697;42.770;23.400;2023-02-10T02:50:48;97387.78;;;-2.99;54.17
32197;BME280;18697;42.770;23.400;2023-02-10T02:58:41;97382.78;;;-2.97;53.70
32197;BME280;18697;42.770;23.400;2023-02-10T03:01:13;97385.16;;;-2.95;54.40
32197;BME280;18697;42.770;23.400;2023-02-10T03:03:40;97377.47;;;-2.93;54.60
32197;BME280;18697;42.770;23.400;2023-02-10T03:06:06;97384.84;;;-2.93;54.77
32197;BME280;18697;42.770;23.400;2023-02-10T03:08:34;97375.25;;;-3.12;55.46
32197;BME280;18697;42.770;23.400;2023-02-10T03:11:02;97379.38;;;-3.06;54.83
32197;BME280;18697;42.770;23.400;2023-02-10T03:13:27;97381.22;;;-2.97;54.90
32197;BME280;18697;42.770;23.400;2023-02-10T03:15:52;97388.81;;;-2.91;54.33
32197;BME280;18697;42.770;23.400;2023-02-10T03:18:18;97377.53;;;-3.14;54.56
32197;BME280;18697;42.770;23.400;2023-02-10T03:20:43;97384.41;;;-3.16;55.08
32197;BME280;18697;42.770;23.400;2023-02-10T03:23:11;97382.16;;;-3.14;54.62
32197;BME280;18697;42.770;23.400;2023-02-10T03:25:37;97386.59;;;-3.31;55.25
32197;BME280;18697;42.770;23.400;2023-02-10T03:28:02;97388.59;;;-3.40;55.49
32197;BME280;18697;42.770;23.400;2023-02-10T03:30:31;97387.31;;;-3.42;55.56
32197;BME280;18697;42.770;23.400;2023-02-10T03:32:56;97388.78;;;-3.45;55.57
32197;BME280;18697;42.770;23.400;2023-02-10T03:35:22;97386.13;;;-3.53;55.48
32197;BME280;18697;42.770;23.400;2023-02-10T03:37:48;97388.91;;;-3.41;54.53
32197;BME280;18697;42.770;23.400;2023-02-10T03:40:14;97389.03;;;-3.38;54.09
32197;BME280;18697;42.770;23.400;2023-02-10T03:42:39;97385.56;;;-3.68;54.52
32197;BME280;18697;42.770;23.400;2023-02-10T03:45:05;97382.38;;;-3.90;55.20
32197;BME280;18697;42.770;23.400;2023-02-10T03:47:30;97374.41;;;-3.95;55.38
32197;BME280;18697;42.770;23.400;2023-02-10T03:49:56;97372.22;;;-4.02;55.46
32197;BME280;18697;42.770;23.400;2023-02-10T03:52:21;97384.66;;;-4.01;55.28
32197;BME280;18697;42.770;23.400;2023-02-10T03:54:47;97379.69;;;-3.99;55.60
32197;BME280;18697;42.770;23.400;2023-02-10T03:57:12;97371.59;;;-4.08;55.14
32197;BME280;18697;42.770;23.400;2023-02-10T03:59:38;97370.91;;;-3.96;55.53
32197;BME280;18697;42.770;23.400;2023-02-10T04:02:03;97367.25;;;-4.00;55.13
32197;BME280;18697;42.770;23.400;2023-02-10T04:04:29;97365.78;;;-3.98;54.97
32197;BME280;18697;42.770;23.400;2023-02-10T04:06:55;97372.50;;;-3.95;55.00
32197;BME280;18697;42.770;23.400;2023-02-10T04:09:20;97374.22;;;-3.90;55.23
32197;BME280;18697;42.770;23.400;2023-02-10T04:11:45;97382.66;;;-3.83;55.15
32197;BME280;18697;42.770;23.400;2023-02-10T04:14:11;97374.31;;;-3.78;55.11
32197;BME280;18697;42.770;23.400;2023-02-10T04:16:36;97373.00;;;-3.72;54.52
32197;BME280;18697;42.770;23.400;2023-02-10T04:19:02;97367.69;;;-3.69;54.75
32197;BME280;18697;42.770;23.400;2023-02-10T04:21:27;97362.53;;;-3.61;54.52
32197;BME280;18697;42.770;23.400;2023-02-10T04:23:53;97363.72;;;-3.50;54.01
32197;BME280;18697;42.770;23.400;2023-02-10T04:26:19;97363.59;;;-3.54;54.30
32197;BME280;18697;42.770;23.400;2023-02-10T04:28:44;97364.25;;;-3.57;53.85
32197;BME280;18697;42.770;23.400;2023-02-10T04:31:09;97366.78;;;-3.52;53.98
32197;BME280;18697;42.770;23.400;2023-02-10T04:33:35;97366.31;;;-3.54;53.73
32197;BME280;18697;42.770;23.400;2023-02-10T04:36:01;97370.28;;;-3.51;53.73
32197;BME280;18697;42.770;23.400;2023-02-10T04:38:30;97365.78;;;-3.47;53.59
32197;BME280;18697;42.770;23.400;2023-02-10T04:40:56;97361.66;;;-3.53;53.42
32197;BME280;18697;42.770;23.400;2023-02-10T04:43:21;97364.25;;;-3.57;53.18
32197;BME280;18697;42.770;23.400;2023-02-10T04:45:47;97365.25;;;-3.61;53.55
32197;BME280;18697;42.770;23.400;2023-02-10T04:48:12;97367.97;;;-3.61;53.96
32197;BME280;18697;42.770;23.400;2023-02-10T04:50:39;97378.34;;;-3.64;53.70
32197;BME280;18697;42.770;23.400;2023-02-10T04:53:05;97374.25;;;-3.70;53.80
32197;BME280;18697;42.770;23.400;2023-02-10T04:55:30;97376.28;;;-3.67;54.26
32197;BME280;18697;42.770;23.400;2023-02-10T04:57:55;97372.66;;;-3.71;53.84
32197;BME280;18697;42.770;23.400;2023-02-10T05:00:21;97381.22;;;-3.60;53.83
32197;BME280;18697;42.770;23.400;2023-02-10T05:02:46;97389.16;;;-3.55;53.86
32197;BME280;18697;42.770;23.400;2023-02-10T05:05:12;97385.19;;;-3.57;53.60
32197;BME280;18697;42.770;23.400;2023-02-10T05:07:38;97388.22;;;-3.59;53.80
32197;BME280;18697;42.770;23.400;2023-02-10T05:10:04;97395.13;;;-3.61;53.13
32197;BME280;18697;42.770;23.400;2023-02-10T05:12:29;97393.72;;;-3.68;52.90
32197;BME280;18697;42.770;23.400;2023-02-10T05:14:55;97401.22;;;-3.65;52.91
32197;BME280;18697;42.770;23.400;2023-02-10T05:17:20;97402.28;;;-3.78;52.78
32197;BME280;18697;42.770;23.400;2023-02-10T05:19:46;97405.72;;;-3.98;53.23
32197;BME280;18697;42.770;23.400;2023-02-10T05:22:11;97403.59;;;-4.22;53.99
32197;BME280;18697;42.770;23.400;2023-02-10T05:24:36;97413.97;;;-4.24;54.62
32197;BME280;18697;42.770;23.400;2023-02-10T05:27:02;97426.09;;;-4.21;54.82
32197;BME280;18697;42.770;23.400;2023-02-10T05:29:27;97420.38;;;-4.28;55.25
32197;BME280;18697;42.770;23.400;2023-02-10T05:31:53;97423.53;;;-4.18;55.21
32197;BME280;18697;42.770;23.400;2023-02-10T05:34:18;97429.78;;;-4.26;55.03
32197;BME280;18697;42.770;23.400;2023-02-10T05:36:44;97428.91;;;-4.09;54.63
32197;BME280;18697;42.770;23.400;2023-02-10T05:39:10;97428.22;;;-3.98;54.22
32197;BME280;18697;42.770;23.400;2023-02-10T05:41:52;97433.88;;;-4.11;54.66
32197;BME280;18697;42.770;23.400;2023-02-10T05:44:17;97433.53;;;-4.48;55.25
32197;BME280;18697;42.770;23.400;2023-02-10T05:46:43;97434.41;;;-4.26;55.72
32197;BME280;18697;42.770;23.400;2023-02-10T05:49:08;97432.16;;;-4.24;55.21
32197;BME280;18697;42.770;23.400;2023-02-10T05:51:34;97447.44;;;-4.58;56.05
32197;BME280;18697;42.770;23.400;2023-02-10T05:53:59;97452.88;;;-4.75;56.94
32197;BME280;18697;42.770;23.400;2023-02-10T05:56:25;97451.56;;;-4.52;56.31
32197;BME280;18697;42.770;23.400;2023-02-10T05:58:50;97452.13;;;-4.29;56.58
32197;BME280;18697;42.770;23.400;2023-02-10T06:01:16;97449.06;;;-4.19;56.74
32197;BME280;18697;42.770;23.400;2023-02-10T06:03:41;97454.81;;;-4.20;56.54
32197;BME280;18697;42.770;23.400;2023-02-10T06:06:07;97451.41;;;-4.00;57.60
32197;BME280;18697;42.770;23.400;2023-02-10T06:08:32;97452.34;;;-3.67;56.45
32197;BME280;18697;42.770;23.400;2023-02-10T06:10:57;97461.72;;;-3.26;54.59
32197;BME280;18697;42.770;23.400;2023-02-10T06:13:23;97456.53;;;-2.77;54.26
32197;BME280;18697;42.770;23.400;2023-02-10T06:15:48;97462.25;;;-2.37;52.17
32197;BME280;18697;42.770;23.400;2023-02-10T06:18:14;97456.97;;;-1.97;51.05
32197;BME280;18697;42.770;23.400;2023-02-10T06:20:39;97473.59;;;-1.53;49.85
32197;BME280;18697;42.770;23.400;2023-02-10T06:23:05;97474.81;;;-1.26;49.15
32197;BME280;18697;42.770;23.400;2023-02-10T06:25:30;97465.00;;;-0.91;48.18
32197;BME280;18697;42.770;23.400;2023-02-10T06:27:55;97469.44;;;-0.58;47.97
32197;BME280;18697;42.770;23.400;2023-02-10T06:30:21;97475.13;;;-0.36;47.24
32197;BME280;18697;42.770;23.400;2023-02-10T06:32:46;97479.78;;;-0.08;46.27
32197;BME280;18697;42.770;23.400;2023-02-10T06:35:12;97475.56;;;0.10;45.85
32197;BME280;18697;42.770;23.400;2023-02-10T06:37:37;97478.59;;;0.37;45.71
32197;BME280;18697;42.770;23.400;2023-02-10T06:40:06;97474.06;;;0.13;45.79
32197;BME280;18697;42.770;23.400;2023-02-10T06:42:31;97466.69;;;-0.03;47.02
32197;BME280;18697;42.770;23.400;2023-02-10T06:44:57;97467.38;;;0.10;46.87
32197;BME280;18697;42.770;23.400;2023-02-10T06:47:22;97477.88;;;0.40;46.87
32197;BME280;18697;42.770;23.400;2023-02-10T06:49:48;97470.38;;;0.52;46.87
32197;BME280;18697;42.770;23.400;2023-02-10T06:52:13;97480.63;;;0.40;47.17
32197;BME280;18697;42.770;23.400;2023-02-10T06:54:39;97486.53;;;0.42;47.16
32197;BME280;18697;42.770;23.400;2023-02-10T06:57:05;97488.19;;;0.62;47.63
32197;BME280;18697;42.770;23.400;2023-02-10T06:59:32;97491.56;;;0.90;46.80
32197;BME280;18697;42.770;23.400;2023-02-10T07:01:57;97482.28;;;1.11;45.83
32197;BME280;18697;42.770;23.400;2023-02-10T07:04:27;97480.75;;;1.13;45.83
32197;BME280;18697;42.770;23.400;2023-02-10T07:06:53;97485.84;;;1.30;45.49
32197;BME280;18697;42.770;23.400;2023-02-10T07:09:18;97486.66;;;0.80;46.77
32197;BME280;18697;42.770;23.400;2023-02-10T07:11:43;97474.50;;;1.13;46.19
32197;BME280;18697;42.770;23.400;2023-02-10T07:14:09;97466.25;;;1.48;45.52
32197;BME280;18697;42.770;23.400;2023-02-10T07:16:34;97476.25;;;1.40;44.14
32197;BME280;18697;42.770;23.400;2023-02-10T07:19:00;97473.06;;;1.19;44.25
32197;BME280;18697;42.770;23.400;2023-02-10T07:21:25;97468.03;;;1.21;44.62
32197;BME280;18697;42.770;23.400;2023-02-10T07:23:51;97469.31;;;1.08;45.42
32197;BME280;18697;42.770;23.400;2023-02-10T07:26:16;97468.59;;;1.49;45.49
32197;BME280;18697;42.770;23.400;2023-02-10T07:28:43;97467.81;;;1.49;46.23
32197;BME280;18697;42.770;23.400;2023-02-10T07:31:09;97473.78;;;1.16;46.92
32197;BME280;18697;42.770;23.400;2023-02-10T07:33:34;97471.66;;;1.44;47.13
32197;BME280;18697;42.770;23.400;2023-02-10T07:36:00;97476.47;;;1.51;46.15
32197;BME280;18697;42.770;23.400;2023-02-10T07:38:27;97487.91;;;1.56;45.93
32197;BME280;18697;42.770;23.400;2023-02-10T07:40:52;97481.72;;;1.79;45.09
32197;BME280;18697;42.770;23.400;2023-02-10T07:43:18;97474.59;;;2.16;44.33
32197;BME280;18697;42.770;23.400;2023-02-10T07:45:43;97475.72;;;1.92;44.23
32197;BME280;18697;42.770;23.400;2023-02-10T07:48:09;97474.47;;;2.32;43.38
32197;BME280;18697;42.770;23.400;2023-02-10T07:50:35;97473.53;;;2.24;43.13
32197;BME280;18697;42.770;23.400;2023-02-10T07:53:01;97474.25;;;2.90;42.33
32197;BME280;18697;42.770;23.400;2023-02-10T07:55:26;97472.22;;;2.60;42.13
32197;BME280;18697;42.770;23.400;2023-02-10T07:57:51;97464.72;;;2.35;42.85
32197;BME280;18697;42.770;23.400;2023-02-10T08:00:17;97472.38;;;2.25;42.78
32197;BME280;18697;42.770;23.400;2023-02-10T08:02:43;97466.75;;;2.15;42.81
32197;BME280;18697;42.770;23.400;2023-02-10T08:05:09;97469.28;;;2.27;42.36
32197;BME280;18697;42.770;23.400;2023-02-10T08:07:35;97462.81;;;2.61;41.99
32197;BME280;18697;42.770;23.400;2023-02-10T08:10:00;97466.19;;;3.30;41.30
32197;BME280;18697;42.770;23.400;2023-02-10T08:12:26;97466.72;;;3.13;41.75
32197;BME280;18697;42.770;23.400;2023-02-10T08:14:51;97471.06;;;3.44;40.69
32197;BME280;18697;42.770;23.400;2023-02-10T08:17:17;97464.44;;;2.17;42.62
32197;BME280;18697;42.770;23.400;2023-02-10T08:19:42;97466.84;;;2.68;42.50
32197;BME280;18697;42.770;23.400;2023-02-10T08:22:08;97462.75;;;2.58;41.70
32197;BME280;18697;42.770;23.400;2023-02-10T08:24:33;97464.19;;;3.01;40.88
32197;BME280;18697;42.770;23.400;2023-02-10T08:26:59;97462.66;;;3.04;40.64
32197;BME280;18697;42.770;23.400;2023-02-10T08:29:24;97469.75;;;3.65;39.34
32197;BME280;18697;42.770;23.400;2023-02-10T08:31:51;97459.66;;;3.76;39.65
32197;BME280;18697;42.770;23.400;2023-02-10T08:34:18;97463.13;;;2.56;41.07
32197;BME280;18697;42.770;23.400;2023-02-10T08:36:44;97465.03;;;3.05;40.93
32197;BME280;18697;42.770;23.400;2023-02-10T08:39:10;97459.28;;;2.61;41.21
32197;BME280;18697;42.770;23.400;2023-02-10T08:41:36;97467.34;;;3.29;41.03
32197;BME280;18697;42.770;23.400;2023-02-10T08:44:02;97466.31;;;3.41;40.34
32197;BME280;18697;42.770;23.400;2023-02-10T08:46:27;97464.59;;;3.59;40.02
32197;BME280;18697;42.770;23.400;2023-02-10T08:48:53;97460.16;;;3.51;40.41
32197;BME280;18697;42.770;23.400;2023-02-10T08:51:19;97460.53;;;4.20;40.13
32197;BME280;18697;42.770;23.400;2023-02-10T08:53:45;97459.22;;;4.07;40.10
32197;BME280;18697;42.770;23.400;2023-02-10T08:56:15;97460.69;;;3.97;39.30
32197;BME280;18697;42.770;23.400;2023-02-10T08:58:40;97459.81;;;3.90;40.15
32197;BME280;18697;42.770;23.400;2023-02-10T09:01:10;97454.56;;;4.11;42.15
32197;BME280;18697;42.770;23.400;2023-02-10T09:03:37;97443.22;;;4.64;39.50
32197;BME280;18697;42.770;23.400;2023-02-10T09:06:02;97439.41;;;4.79;38.68
32197;BME280;18697;42.770;23.400;2023-02-10T09:08:28;97441.41;;;3.94;39.31
32197;BME280;18697;42.770;23.400;2023-02-10T09:10:53;97448.56;;;4.43;39.07
32197;BME280;18697;42.770;23.400;2023-02-10T09:13:18;97443.00;;;3.95;39.33
32197;BME280;18697;42.770;23.400;2023-02-10T09:15:44;97438.19;;;4.25;39.21
32197;BME280;18697;42.770;23.400;2023-02-10T09:18:10;97447.34;;;4.88;38.60
32197;BME280;18697;42.770;23.400;2023-02-10T09:20:36;97444.81;;;4.65;37.87
32197;BME280;18697;42.770;23.400;2023-02-10T09:23:02;97452.00;;;5.49;36.51
32197;BME280;18697;42.770;23.400;2023-02-10T09:25:27;97445.00;;;4.90;37.12
32197;BME280;18697;42.770;23.400;2023-02-10T09:27:53;97447.31;;;5.57;36.21
32197;BME280;18697;42.770;23.400;2023-02-10T09:30:21;97446.94;;;5.58;36.26
32197;BME280;18697;42.770;23.400;2023-02-10T09:32:47;97444.03;;;5.26;36.18
32197;BME280;18697;42.770;23.400;2023-02-10T09:35:12;97441.13;;;5.02;37.04
32197;BME280;18697;42.770;23.400;2023-02-10T09:37:37;97433.38;;;4.63;37.19
32197;BME280;18697;42.770;23.400;2023-02-10T09:40:03;97429.97;;;3.88;37.85
32197;BME280;18697;42.770;23.400;2023-02-10T09:45:26;97415.75;;;5.40;35.99
32197;BME280;18697;42.770;23.400;2023-02-10T09:53:28;97414.72;;;5.77;36.31
32197;BME280;18697;42.770;23.400;2023-02-10T09:55:56;97407.00;;;5.24;36.13
32197;BME280;18697;42.770;23.400;2023-02-10T09:58:33;97410.38;;;5.76;35.82
32197;BME280;18697;42.770;23.400;2023-02-10T10:01:14;97399.53;;;5.24;35.40
32197;BME280;18697;42.770;23.400;2023-02-10T10:06:37;97400.91;;;5.73;35.20
32197;BME280;18697;42.770;23.400;2023-02-10T10:14:24;97381.34;;;5.06;36.48
32197;BME280;18697;42.770;23.400;2023-02-10T10:19:47;97365.50;;;4.85;38.24
32197;BME280;18697;42.770;23.400;2023-02-10T10:22:27;97370.59;;;4.79;36.55
32197;BME280;18697;42.770;23.400;2023-02-10T10:25:52;97373.31;;;5.66;35.69
32197;BME280;18697;42.770;23.400;2023-02-10T10:31:13;97365.16;;;6.34;33.92
32197;BME280;18697;42.770;23.400;2023-02-10T10:33:52;97369.50;;;6.35;33.91
32197;BME280;18697;42.770;23.400;2023-02-10T10:36:22;97365.97;;;6.48;34.20
32197;BME280;18697;42.770;23.400;2023-02-10T10:38:54;97354.03;;;6.90;34.05
32197;BME280;18697;42.770;23.400;2023-02-10T10:41:23;97349.97;;;7.34;33.02
32197;BME280;18697;42.770;23.400;2023-02-10T10:43:53;97353.53;;;7.35;32.52
32197;BME280;18697;42.770;23.400;2023-02-10T10:46:26;97350.63;;;7.59;31.74
32197;BME280;18697;42.770;23.400;2023-02-10T10:48:53;97355.09;;;7.32;31.49
32197;BME280;18697;42.770;23.400;2023-02-10T10:51:19;97349.97;;;7.34;31.59
32197;BME280;18697;42.770;23.400;2023-02-10T10:53:50;97351.50;;;7.42;31.33
32197;BME280;18697;42.770;23.400;2023-02-10T10:58:45;97351.25;;;7.05;32.08
32197;BME280;18697;42.770;23.400;2023-02-10T11:01:14;97340.63;;;6.85;32.34
32197;BME280;18697;42.770;23.400;2023-02-10T11:03:39;97334.22;;;7.24;32.37
32197;BME280;18697;42.770;23.400;2023-02-10T11:06:10;97329.75;;;7.44;31.62
32197;BME280;18697;42.770;23.400;2023-02-10T11:11:10;97331.38;;;8.04;31.42
32197;BME280;18697;42.770;23.400;2023-02-10T11:13:39;97332.25;;;8.46;30.96
32197;BME280;18697;42.770;23.400;2023-02-10T11:18:30;97321.75;;;8.71;30.58
32197;BME280;18697;42.770;23.400;2023-02-10T11:20:58;97330.69;;;8.45;30.93
32197;BME280;18697;42.770;23.400;2023-02-10T11:23:25;97326.88;;;8.24;30.88
32197;BME280;18697;42.770;23.400;2023-02-10T11:26:03;97333.13;;;7.80;31.16
32197;BME280;18697;42.770;23.400;2023-02-10T11:28:31;97328.38;;;7.81;30.43
32197;BME280;18697;42.770;23.400;2023-02-10T11:31:04;97315.69;;;7.87;30.94
32197;BME280;18697;42.770;23.400;2023-02-10T11:33:33;97324.38;;;7.89;30.96
32197;BME280;18697;42.770;23.400;2023-02-10T11:38:27;97309.06;;;8.25;30.27
32197;BME280;18697;42.770;23.400;2023-02-10T11:41:01;97303.09;;;8.75;29.89
32197;BME280;18697;42.770;23.400;2023-02-10T11:46:04;97305.94;;;9.02;28.93
32197;BME280;18697;42.770;23.400;2023-02-10T11:48:31;97312.31;;;8.99;28.71
32197;BME280;18697;42.770;23.400;2023-02-10T11:51:14;97307.63;;;8.93;28.73
32197;BME280;18697;42.770;23.400;2023-02-10T11:53:41;97305.38;;;9.18;29.10
32197;BME280;18697;42.770;23.400;2023-02-10T11:58:55;97303.31;;;9.26;28.08
32197;BME280;18697;42.770;23.400;2023-02-10T12:04:45;97287.53;;;8.88;28.93
32197;BME280;18697;42.770;23.400;2023-02-10T12:07:20;97289.84;;;9.54;28.20
32197;BME280;18697;42.770;23.400;2023-02-10T12:10:02;97284.81;;;9.73;28.04
32197;BME280;18697;42.770;23.400;2023-02-10T12:12:46;97282.88;;;9.43;27.82
32197;BME280;18697;42.770;23.400;2023-02-10T12:18:19;97277.97;;;9.23;28.18
32197;BME280;18697;42.770;23.400;2023-02-10T12:21:04;97273.22;;;9.54;27.72
32197;BME280;18697;42.770;23.400;2023-02-10T12:23:47;97268.63;;;9.68;27.84
32197;BME280;18697;42.770;23.400;2023-02-10T12:29:11;97265.13;;;9.37;28.35
32197;BME280;18697;42.770;23.400;2023-02-10T12:51:32;97250.22;;;10.31;27.03
32197;BME280;18697;42.770;23.400;2023-02-10T12:54:18;97251.63;;;9.93;26.88
32197;BME280;18697;42.770;23.400;2023-02-10T12:59:27;97254.22;;;10.73;25.92
32197;BME280;18697;42.770;23.400;2023-02-10T13:01:58;97259.38;;;10.95;26.47
32197;BME280;18697;42.770;23.400;2023-02-10T13:04:30;97266.69;;;10.85;26.34
32197;BME280;18697;42.770;23.400;2023-02-10T13:07:02;97263.28;;;10.97;25.89
32197;BME280;18697;42.770;23.400;2023-02-10T13:09:38;97262.72;;;11.06;25.53
32197;BME280;18697;42.770;23.400;2023-02-10T13:14:31;97258.44;;;11.01;25.61
32197;BME280;18697;42.770;23.400;2023-02-10T13:16:59;97258.00;;;11.03;25.73
32197;BME280;18697;42.770;23.400;2023-02-10T13:19:39;97256.66;;;11.11;25.33
32197;BME280;18697;42.770;23.400;2023-02-10T13:22:18;97263.63;;;11.19;24.81
32197;BME280;18697;42.770;23.400;2023-02-10T13:27:42;97264.22;;;10.91;24.68
32197;BME280;18697;42.770;23.400;2023-02-10T13:35:22;97259.28;;;10.78;24.91
32197;BME280;18697;42.770;23.400;2023-02-10T13:37:54;97259.06;;;10.89;25.02
32197;BME280;18697;42.770;23.400;2023-02-10T13:40:21;97259.97;;;10.63;24.65
32197;BME280;18697;42.770;23.400;2023-02-10T13:42:54;97258.91;;;10.33;25.03
32197;BME280;18697;42.770;23.400;2023-02-10T13:45:28;97256.72;;;10.44;25.00
32197;BME280;18697;42.770;23.400;2023-02-10T13:48:00;97257.66;;;10.58;25.45
32197;BME280;18697;42.770;23.400;2023-02-10T13:50:41;97242.03;;;10.87;26.01
32197;BME280;18697;42.770;23.400;2023-02-10T13:53:26;97239.03;;;10.78;25.41
32197;BME280;18697;42.770;23.400;2023-02-10T13:58:54;97240.44;;;10.66;26.17
32197;BME280;18697;42.770;23.400;2023-02-10T14:03:55;97257.81;;;9.77;25.65
32197;BME280;18697;42.770;23.400;2023-02-10T14:06:32;97237.22;;;10.01;26.64
32197;BME280;18697;42.770;23.400;2023-02-10T14:09:02;97234.56;;;10.17;26.54
32197;BME280;18697;42.770;23.400;2023-02-10T14:11:40;97224.53;;;10.00;25.91
32197;BME280;18697;42.770;23.400;2023-02-10T14:14:20;97238.13;;;9.68;25.73
32197;BME280;18697;42.770;23.400;2023-02-10T14:16:46;97233.66;;;9.74;26.12
32197;BME280;18697;42.770;23.400;2023-02-10T14:19:24;97226.53;;;10.00;26.39
32197;BME280;18697;42.770;23.400;2023-02-10T14:21:54;97229.22;;;10.30;25.79
32197;BME280;18697;42.770;23.400;2023-02-10T14:24:25;97236.38;;;10.51;25.52
32197;BME280;18697;42.770;23.400;2023-02-10T14:26:51;97232.09;;;10.66;25.79
32197;BME280;18697;42.770;23.400;2023-02-10T14:29:19;97224.56;;;10.86;25.48
32197;BME280;18697;42.770;23.400;2023-02-10T14:31:53;97229.06;;;11.00;24.68
32197;BME280;18697;42.770;23.400;2023-02-10T14:34:28;97224.50;;;10.90;24.39
32197;BME280;18697;42.770;23.400;2023-02-10T14:37:01;97224.34;;;10.58;24.37
32197;BME280;18697;42.770;23.400;2023-02-10T14:39:29;97227.47;;;10.60;24.47
32197;BME280;18697;42.770;23.400;2023-02-10T14:41:57;97231.53;;;10.55;24.26
32197;BME280;18697;42.770;23.400;2023-02-10T14:44:36;97232.91;;;10.67;24.14
32197;BME280;18697;42.770;23.400;2023-02-10T14:47:02;97220.00;;;10.76;24.92
32197;BME280;18697;42.770;23.400;2023-02-10T14:49:28;97228.91;;;10.88;24.78